createdAt,value
2023-01-25T00:02:07.984Z,43.40
2023-01-25T00:04:33.087Z,50.65
2023-01-25T00:06:59.446Z,59.10
2023-01-25T00:09:24.941Z,58.53
2023-01-25T00:11:49.563Z,55.47
2023-01-25T00:14:15.032Z,56.00
2023-01-25T00:16:40.291Z,56.22
2023-01-25T00:19:04.873Z,59.72
2023-01-25T00:21:29.929Z,62.60
2023-01-25T00:23:55.958Z,57.65
2023-01-25T00:26:21.327Z,54.58
2023-01-25T00:28:49.859Z,55.55
2023-01-25T00:31:22.805Z,49.70
2023-01-25T00:33:53.675Z,48.95
2023-01-25T00:36:45.876Z,54.42
2023-01-25T00:39:14.507Z,48.25
2023-01-25T00:41:39.508Z,56.70
2023-01-25T00:44:04.337Z,54.30
2023-01-25T00:46:28.834Z,60.95
2023-01-25T00:48:55.900Z,49.58
2023-01-25T00:51:20.427Z,52.55
2023-01-25T00:53:45.233Z,52.15
2023-01-25T00:56:11.262Z,56.53
2023-01-25T00:58:35.969Z,54.42
2023-01-25T01:01:03.501Z,51.42
2023-01-25T01:03:28.175Z,51.72
2023-01-25T01:06:01.786Z,52.55
2023-01-25T01:08:26.595Z,54.42
2023-01-25T01:10:51.032Z,57.40
2023-01-25T01:13:18.188Z,57.08
2023-01-25T01:15:42.639Z,46.65
2023-01-25T01:18:07.287Z,46.15
2023-01-25T01:20:32.055Z,49.20
2023-01-25T01:22:57.124Z,53.30
2023-01-25T01:25:21.576Z,46.83
2023-01-25T01:27:46.369Z,47.95
2023-01-25T01:30:13.690Z,41.60
2023-01-25T01:32:39.383Z,52.13
2023-01-25T01:35:04.473Z,52.88
2023-01-25T01:37:28.934Z,45.10
2023-01-25T01:39:53.934Z,46.38
2023-01-25T01:42:18.613Z,42.38
2023-01-25T01:44:49.022Z,45.08
2023-01-25T01:47:19.389Z,38.90
2023-01-25T01:49:51.652Z,44.97
2023-01-25T01:52:18.573Z,42.22
2023-01-25T01:54:47.317Z,42.20
2023-01-25T01:57:15.651Z,39.47
2023-01-25T01:59:44.834Z,39.92
2023-01-25T02:02:09.653Z,36.05
2023-01-25T02:04:36.793Z,35.58
2023-01-25T02:07:12.015Z,34.35
2023-01-25T02:09:38.131Z,38.88
2023-01-25T02:12:03.173Z,34.42
2023-01-25T02:14:30.483Z,33.28
2023-01-25T02:16:57.929Z,43.03
2023-01-25T02:19:36.644Z,78.50
2023-01-25T02:22:07.956Z,68.95
2023-01-25T02:24:34.503Z,39.17
2023-01-25T02:27:00.945Z,41.25
2023-01-25T02:29:30.354Z,38.10
2023-01-25T02:32:01.464Z,36.28
2023-01-25T02:34:26.176Z,32.47
2023-01-25T02:36:50.777Z,37.13
2023-01-25T02:39:20.295Z,66.05
2023-01-25T02:41:48.821Z,68.30
2023-01-25T02:44:18.405Z,76.53
2023-01-25T02:46:45.142Z,49.63
2023-01-25T02:49:11.591Z,29.50
2023-01-25T02:51:38.036Z,36.05
2023-01-25T02:54:04.075Z,26.17
2023-01-25T02:56:29.879Z,46.47
2023-01-25T02:58:55.509Z,35.53
2023-01-25T03:01:21.850Z,36.47
2023-01-25T03:03:46.427Z,29.13
2023-01-25T03:06:11.540Z,35.92
2023-01-25T03:08:37.836Z,38.75
2023-01-25T03:11:04.992Z,25.10
2023-01-25T03:13:30.596Z,27.23
2023-01-25T03:16:01.155Z,27.08
2023-01-25T03:18:28.160Z,23.55
2023-01-25T03:20:52.893Z,23.42
2023-01-25T03:23:17.650Z,26.35
2023-01-25T03:25:42.277Z,24.38
2023-01-25T03:30:57.237Z,26.60
2023-01-25T03:33:23.033Z,24.75
2023-01-25T03:35:53.596Z,23.65
2023-01-25T03:38:19.891Z,23.08
2023-01-25T03:40:44.791Z,23.40
2023-01-25T03:43:09.465Z,19.05
2023-01-25T03:45:35.014Z,28.50
2023-01-25T03:47:59.951Z,22.88
2023-01-25T03:50:24.408Z,33.63
2023-01-25T03:53:07.290Z,18.33
2023-01-25T03:55:32.095Z,23.88
2023-01-25T03:57:57.532Z,19.85
2023-01-25T04:00:23.975Z,20.00
2023-01-25T04:02:56.589Z,19.20
2023-01-25T04:05:21.321Z,19.98
2023-01-25T04:07:45.945Z,20.65
2023-01-25T04:10:14.237Z,22.02
2023-01-25T04:12:42.573Z,22.27
2023-01-25T04:15:08.999Z,20.73
2023-01-25T04:17:33.797Z,16.52
2023-01-25T04:20:04.159Z,20.65
2023-01-25T04:22:36.551Z,22.95
2023-01-25T04:25:03.109Z,19.55
2023-01-25T04:27:29.885Z,19.50
2023-01-25T04:30:03.200Z,21.75
2023-01-25T04:32:28.794Z,19.38
2023-01-25T04:34:54.780Z,20.27
2023-01-25T04:37:22.072Z,23.88
2023-01-25T04:39:54.140Z,15.55
2023-01-25T04:42:18.897Z,20.15
2023-01-25T04:44:48.517Z,18.90
2023-01-25T04:47:13.557Z,23.10
2023-01-25T04:49:38.202Z,18.55
2023-01-25T04:52:03.018Z,20.95
2023-01-25T04:54:27.679Z,23.80
2023-01-25T04:56:52.290Z,18.30
2023-01-25T04:59:18.402Z,18.75
2023-01-25T05:01:45.647Z,19.45
2023-01-25T05:04:10.247Z,22.17
2023-01-25T05:06:38.435Z,20.10
2023-01-25T05:09:03.754Z,21.15
2023-01-25T05:11:30.405Z,26.95
2023-01-25T05:16:34.833Z,24.23
2023-01-25T05:19:02.401Z,19.52
2023-01-25T05:21:54.523Z,22.27
2023-01-25T05:24:20.821Z,26.13
2023-01-25T05:27:03.441Z,22.58
2023-01-25T05:29:47.801Z,21.30
2023-01-25T05:32:15.376Z,37.15
2023-01-25T05:34:42.136Z,27.58
2023-01-25T05:37:08.813Z,23.83
2023-01-25T05:39:37.292Z,26.73
2023-01-25T05:42:02.267Z,28.70
2023-01-25T05:44:26.997Z,26.38
2023-01-25T05:46:52.522Z,21.20
2023-01-25T05:49:17.451Z,30.90
2023-01-25T05:51:44.011Z,31.40
2023-01-25T05:54:13.564Z,23.95
2023-01-25T05:56:41.951Z,19.33
2023-01-25T05:59:07.062Z,29.42
2023-01-25T06:01:31.923Z,29.05
2023-01-25T06:03:57.346Z,25.42
2023-01-25T06:06:23.817Z,22.85
2023-01-25T06:08:50.406Z,24.25
2023-01-25T06:11:17.498Z,24.73
2023-01-25T06:13:43.429Z,23.67
2023-01-25T06:16:09.269Z,24.00
2023-01-25T06:18:39.873Z,28.80
2023-01-25T06:21:17.325Z,31.33
2023-01-25T06:23:44.924Z,30.50
2023-01-25T06:26:14.316Z,25.33
2023-01-25T06:28:39.909Z,29.73
2023-01-25T06:31:09.114Z,30.42
2023-01-25T06:33:34.072Z,30.02
2023-01-25T06:36:01.783Z,28.73
2023-01-25T06:38:26.869Z,32.13
2023-01-25T06:40:51.262Z,28.65
2023-01-25T06:43:18.136Z,29.77
2023-01-25T06:45:42.677Z,36.25
2023-01-25T06:48:09.006Z,28.15
2023-01-25T06:50:33.510Z,31.02
2023-01-25T06:52:58.649Z,32.00
2023-01-25T06:55:23.698Z,31.67
2023-01-25T06:57:58.551Z,32.78
2023-01-25T07:00:25.286Z,29.38
2023-01-25T07:02:49.806Z,43.72
2023-01-25T07:05:14.591Z,30.77
2023-01-25T07:07:39.564Z,28.33
2023-01-25T07:10:04.837Z,28.65
2023-01-25T07:12:30.908Z,31.65
2023-01-25T07:14:55.458Z,31.75
2023-01-25T07:17:21.559Z,36.30
2023-01-25T07:19:46.027Z,33.83
2023-01-25T07:22:10.862Z,24.52
2023-01-25T07:24:35.424Z,29.73
2023-01-25T07:27:00.754Z,27.25
2023-01-25T07:29:25.640Z,35.65
2023-01-25T07:31:50.283Z,31.10
2023-01-25T07:34:17.128Z,33.88
2023-01-25T07:36:43.774Z,34.20
2023-01-25T07:39:10.352Z,33.53
2023-01-25T07:41:34.904Z,29.80
2023-01-25T07:43:59.594Z,30.13
2023-01-25T07:46:32.664Z,30.98
2023-01-25T07:48:59.058Z,28.25
2023-01-25T07:51:28.588Z,32.10
2023-01-25T07:53:54.595Z,32.92
2023-01-25T07:56:20.325Z,36.13
2023-01-25T07:58:45.912Z,30.05
2023-01-25T08:01:11.163Z,30.90
2023-01-25T08:03:36.010Z,28.98
2023-01-25T08:06:00.769Z,33.67
2023-01-25T08:08:27.661Z,28.98
2023-01-25T08:10:52.645Z,26.83
2023-01-25T08:13:17.094Z,35.72
2023-01-25T08:15:41.721Z,39.13
2023-01-25T08:18:06.508Z,33.97
2023-01-25T08:20:31.131Z,31.85
2023-01-25T08:22:55.762Z,31.88
2023-01-25T08:25:21.901Z,30.60
2023-01-25T08:27:46.697Z,30.48
2023-01-25T08:30:13.105Z,32.00
2023-01-25T08:32:38.237Z,36.13
2023-01-25T08:35:02.917Z,39.85
2023-01-25T08:37:29.740Z,31.95
2023-01-25T08:39:54.263Z,31.77
2023-01-25T08:42:21.535Z,34.58
2023-01-25T08:44:46.042Z,35.33
2023-01-25T08:47:10.947Z,30.10
2023-01-25T08:49:36.267Z,36.35
2023-01-25T08:52:01.084Z,34.10
2023-01-25T08:54:25.730Z,34.05
2023-01-25T08:56:50.809Z,40.45
2023-01-25T08:59:17.300Z,33.92
2023-01-25T09:01:42.054Z,38.05
2023-01-25T09:04:07.075Z,31.83
2023-01-25T09:06:32.085Z,30.55
2023-01-25T09:08:56.888Z,35.05
2023-01-25T09:11:24.196Z,34.45
2023-01-25T09:13:49.831Z,33.35
2023-01-25T09:16:18.369Z,28.85
2023-01-25T09:18:45.004Z,33.33
2023-01-25T09:21:11.548Z,39.03
2023-01-25T09:23:50.276Z,40.25
2023-01-25T09:26:22.119Z,36.63
2023-01-25T09:28:49.838Z,32.15
2023-01-25T09:31:22.346Z,34.90
2023-01-25T09:34:20.691Z,36.10
2023-01-25T09:36:45.837Z,33.92
2023-01-25T09:39:12.414Z,37.15
2023-01-25T09:42:06.573Z,35.63
2023-01-25T09:44:47.358Z,29.67
2023-01-25T09:47:22.383Z,31.73
2023-01-25T09:50:13.065Z,31.38
2023-01-25T09:53:00.651Z,38.03
2023-01-25T09:55:29.218Z,31.30
2023-01-25T09:57:56.868Z,33.65
2023-01-25T10:00:25.747Z,32.20
2023-01-25T10:02:56.963Z,35.22
2023-01-25T10:05:24.938Z,32.90
2023-01-25T10:07:59.588Z,36.35
2023-01-25T10:10:29.597Z,33.45
2023-01-25T10:15:22.564Z,35.90
2023-01-25T10:17:47.472Z,35.53
2023-01-25T10:20:25.946Z,31.02
2023-01-25T10:22:54.666Z,34.75
2023-01-25T10:25:30.610Z,31.70
2023-01-25T10:28:10.244Z,29.58
2023-01-25T10:30:42.666Z,30.15
2023-01-25T10:33:14.699Z,32.65
2023-01-25T10:35:47.220Z,31.38
2023-01-25T10:38:18.488Z,33.42
2023-01-25T10:40:47.624Z,31.17
2023-01-25T10:43:18.140Z,43.38
2023-01-25T10:45:43.245Z,44.05
2023-01-25T10:48:13.504Z,28.70
2023-01-25T10:50:48.429Z,31.05
2023-01-25T10:53:26.650Z,34.90
2023-01-25T10:56:14.045Z,31.85
2023-01-25T10:58:40.058Z,30.05
2023-01-25T11:01:08.242Z,31.27
2023-01-25T11:03:45.863Z,26.67
2023-01-25T11:06:12.473Z,25.27
2023-01-25T11:08:38.438Z,26.13
2023-01-25T11:11:26.581Z,33.92
2023-01-25T11:13:51.224Z,29.27
2023-01-25T11:16:29.097Z,27.00
2023-01-25T11:18:55.879Z,32.25
2023-01-25T11:21:23.815Z,26.30
2023-01-25T11:24:00.473Z,36.20
2023-01-25T11:26:25.286Z,25.65
2023-01-25T11:28:49.884Z,31.50
2023-01-25T11:31:16.023Z,28.23
2023-01-25T11:33:43.681Z,23.48
2023-01-25T11:36:23.984Z,26.85
2023-01-25T11:39:16.071Z,23.25
2023-01-25T11:42:00.588Z,19.25
2023-01-25T11:44:48.548Z,24.58
2023-01-25T11:47:27.435Z,20.88
2023-01-25T11:49:59.456Z,23.30
2023-01-25T11:52:32.543Z,24.42
2023-01-25T11:55:11.314Z,28.52
2023-01-25T11:57:47.584Z,28.15
2023-01-25T12:00:36.687Z,25.80
2023-01-25T12:03:49.164Z,26.58
2023-01-25T12:06:19.498Z,24.52
2023-01-25T12:09:01.580Z,35.00
2023-01-25T12:11:42.140Z,31.40
2023-01-25T12:14:14.399Z,30.33
2023-01-25T12:17:08.420Z,30.23
2023-01-25T12:19:44.715Z,30.08
2023-01-25T12:22:37.532Z,27.42
2023-01-25T12:25:08.891Z,26.23
2023-01-25T12:27:51.684Z,25.40
2023-01-25T12:30:27.232Z,22.77
2023-01-25T12:33:09.011Z,26.92
2023-01-25T12:35:41.264Z,33.67
2023-01-25T12:38:12.710Z,30.23
2023-01-25T12:40:46.152Z,31.65
2023-01-25T12:43:17.944Z,23.00
2023-01-25T12:45:45.234Z,27.70
2023-01-25T12:48:18.404Z,26.25
2023-01-25T12:50:48.432Z,21.52
2023-01-25T12:53:23.695Z,29.88
2023-01-25T12:55:48.939Z,27.80
2023-01-25T12:58:37.010Z,28.80
2023-01-25T13:01:10.752Z,23.23
2023-01-25T13:03:41.907Z,24.98
2023-01-25T13:06:16.454Z,26.58
2023-01-25T13:08:49.822Z,23.33
2023-01-25T13:11:20.829Z,29.35
2023-01-25T13:13:46.988Z,25.35
2023-01-25T13:16:37.768Z,26.73
2023-01-25T13:19:02.984Z,25.10
2023-01-25T13:21:45.073Z,26.90
2023-01-25T13:24:21.427Z,22.40
2023-01-25T13:27:05.332Z,34.20
2023-01-25T13:30:03.403Z,32.25
2023-01-25T13:32:56.495Z,26.63
2023-01-25T13:35:43.430Z,27.08
2023-01-25T13:38:31.687Z,25.23
2023-01-25T13:41:24.206Z,31.67
2023-01-25T13:44:09.245Z,23.83
2023-01-25T13:46:35.109Z,29.42
2023-01-25T13:49:05.423Z,22.75
2023-01-25T13:51:36.171Z,25.98
2023-01-25T13:54:01.387Z,26.73
2023-01-25T13:56:35.159Z,24.88
2023-01-25T13:59:04.973Z,31.45
2023-01-25T14:01:32.964Z,24.27
2023-01-25T14:04:02.155Z,22.35
2023-01-25T14:06:28.945Z,25.40
2023-01-25T14:08:55.118Z,32.50
2023-01-25T14:11:21.544Z,25.02
2023-01-25T14:13:58.372Z,23.98
2023-01-25T14:16:22.968Z,24.33
2023-01-25T14:18:47.455Z,26.30
2023-01-25T14:21:18.334Z,28.05
2023-01-25T14:23:42.927Z,31.92
2023-01-25T14:26:21.473Z,18.60
2023-01-25T14:28:59.008Z,24.20
2023-01-25T14:31:36.993Z,24.40
2023-01-25T14:34:04.352Z,24.58
2023-01-25T14:36:37.393Z,22.83
2023-01-25T14:39:04.774Z,24.85
2023-01-25T14:41:33.888Z,29.92
2023-01-25T14:44:00.485Z,26.35
2023-01-25T14:46:28.092Z,28.55
2023-01-25T14:48:53.960Z,24.30
2023-01-25T14:51:26.110Z,27.38
2023-01-25T14:53:58.066Z,36.72
2023-01-25T14:56:32.178Z,29.25
2023-01-25T14:58:59.969Z,26.92
2023-01-25T15:01:33.291Z,26.73
2023-01-25T15:03:57.927Z,28.77
2023-01-25T15:06:22.478Z,41.72
2023-01-25T15:08:47.767Z,28.90
2023-01-25T15:11:49.005Z,37.42
2023-01-25T15:14:19.187Z,39.42
2023-01-25T15:16:43.707Z,50.13
2023-01-25T15:19:26.759Z,24.75
2023-01-25T15:21:51.544Z,33.42
2023-01-25T15:24:15.964Z,27.67
2023-01-25T15:26:42.793Z,30.05
2023-01-25T15:29:14.811Z,31.15
2023-01-25T15:31:39.770Z,39.00
2023-01-25T15:34:05.311Z,35.88
2023-01-25T15:36:30.805Z,27.98
2023-01-25T15:38:55.694Z,31.65
2023-01-25T15:41:20.268Z,30.50
2023-01-25T15:43:46.266Z,29.27
2023-01-25T15:46:17.824Z,34.58
2023-01-25T15:48:44.148Z,28.95
2023-01-25T15:51:08.903Z,30.48
2023-01-25T15:53:33.389Z,34.38
2023-01-25T15:56:01.322Z,36.95
2023-01-25T15:58:28.860Z,30.17
2023-01-25T16:00:54.628Z,32.60
2023-01-25T16:03:26.040Z,38.75
2023-01-25T16:05:52.166Z,32.08
2023-01-25T16:08:18.282Z,35.85
2023-01-25T16:10:43.018Z,35.38
2023-01-25T16:13:09.692Z,34.67
2023-01-25T16:15:34.394Z,27.77
2023-01-25T16:18:00.317Z,38.50
2023-01-25T16:20:24.870Z,33.22
2023-01-25T16:22:49.470Z,34.33
2023-01-25T16:25:13.991Z,31.33
2023-01-25T16:27:38.696Z,36.58
2023-01-25T16:30:03.932Z,32.80
2023-01-25T16:32:28.959Z,34.22
2023-01-25T16:34:54.818Z,39.15
2023-01-25T16:37:19.627Z,31.67
2023-01-25T16:39:44.293Z,30.20
2023-01-25T16:42:13.426Z,30.75
2023-01-25T16:44:37.877Z,30.80
2023-01-25T16:47:03.877Z,54.92
2023-01-25T16:49:30.488Z,60.55
2023-01-25T16:51:56.733Z,41.38
2023-01-25T16:54:21.767Z,32.20
2023-01-25T16:56:46.331Z,33.60
2023-01-25T16:59:11.893Z,33.33
2023-01-25T17:01:38.439Z,33.55
2023-01-25T17:04:02.927Z,30.65
2023-01-25T17:06:29.213Z,32.17
2023-01-25T17:08:58.833Z,36.05
2023-01-25T17:11:23.421Z,33.95
2023-01-25T17:13:50.391Z,34.40
2023-01-25T17:16:14.995Z,34.30
2023-01-25T17:18:40.032Z,37.85
2023-01-25T17:21:06.870Z,39.70
2023-01-25T17:23:33.404Z,41.25
2023-01-25T17:25:59.170Z,38.05
2023-01-25T17:28:24.235Z,38.92
2023-01-25T17:30:54.082Z,46.20
2023-01-25T17:33:19.304Z,35.33
2023-01-25T17:35:43.680Z,36.60
2023-01-25T17:38:09.540Z,32.13
2023-01-25T17:40:35.893Z,34.10
2023-01-25T17:43:01.752Z,33.22
2023-01-25T17:45:27.404Z,34.00
2023-01-25T17:47:51.806Z,40.00
2023-01-25T17:50:16.449Z,84.90
2023-01-25T17:52:40.855Z,100.75
2023-01-25T17:55:06.885Z,65.97
2023-01-25T17:57:31.644Z,40.65
2023-01-25T17:59:57.849Z,37.80
2023-01-25T18:02:22.931Z,44.00
2023-01-25T18:04:47.266Z,46.75
2023-01-25T18:07:11.752Z,41.78
2023-01-25T18:09:36.151Z,35.45
2023-01-25T18:12:00.649Z,36.65
2023-01-25T18:14:25.302Z,36.78
2023-01-25T18:16:51.636Z,31.98
2023-01-25T18:19:16.218Z,30.60
2023-01-25T18:21:42.369Z,33.25
2023-01-25T18:24:25.993Z,38.10
2023-01-25T18:26:52.681Z,41.97
2023-01-25T18:29:37.642Z,36.00
2023-01-25T18:32:03.569Z,31.33
2023-01-25T18:34:28.005Z,42.65
2023-01-25T18:36:52.525Z,35.42
2023-01-25T18:39:16.942Z,31.75
2023-01-25T18:41:42.846Z,39.75
2023-01-25T18:44:08.871Z,38.78
2023-01-25T18:46:33.504Z,38.17
2023-01-25T18:48:59.358Z,36.03
2023-01-25T18:51:23.903Z,44.28
2023-01-25T18:53:48.424Z,35.17
2023-01-25T18:56:14.591Z,38.03
2023-01-25T18:58:41.082Z,37.35
2023-01-25T19:01:09.434Z,42.58
2023-01-25T19:03:34.382Z,39.42
2023-01-25T19:06:00.999Z,40.53
2023-01-25T19:08:26.586Z,37.60
2023-01-25T19:10:51.041Z,39.20
2023-01-25T19:13:15.667Z,36.58
2023-01-25T19:15:40.135Z,36.90
2023-01-25T19:18:04.993Z,36.33
2023-01-25T19:20:30.450Z,37.58
2023-01-25T19:22:56.723Z,39.50
2023-01-25T19:25:22.200Z,50.33
2023-01-25T19:27:46.747Z,42.50
2023-01-25T19:30:12.520Z,81.20
2023-01-25T19:32:37.227Z,68.68
2023-01-25T19:35:02.957Z,59.33
2023-01-25T19:37:28.199Z,40.22
2023-01-25T19:39:54.245Z,47.47
2023-01-25T19:42:18.844Z,43.03
2023-01-25T19:44:43.506Z,38.50
2023-01-25T19:47:08.165Z,36.00
2023-01-25T19:49:32.617Z,40.88
2023-01-25T19:51:57.288Z,33.13
2023-01-25T19:54:23.242Z,37.58
2023-01-25T19:56:50.291Z,38.80
2023-01-25T19:59:16.403Z,36.50
2023-01-25T20:01:44.200Z,37.65
2023-01-25T20:04:09.262Z,39.55
2023-01-25T20:06:34.508Z,37.15
2023-01-25T20:08:58.999Z,36.67
2023-01-25T20:11:25.906Z,43.30
2023-01-25T20:13:53.505Z,41.22
2023-01-25T20:16:19.464Z,38.80
2023-01-25T20:18:44.981Z,38.92
2023-01-25T20:21:12.190Z,38.22
2023-01-25T20:23:39.046Z,39.00
2023-01-25T20:26:05.787Z,38.97
2023-01-25T20:28:31.055Z,45.85
2023-01-25T20:30:58.515Z,47.83
2023-01-25T20:33:23.106Z,46.42
2023-01-25T20:35:47.695Z,46.15
2023-01-25T20:38:12.711Z,41.17
2023-01-25T20:40:37.473Z,42.50
2023-01-25T20:43:02.137Z,38.00
2023-01-25T20:45:26.950Z,49.15
2023-01-25T20:47:53.189Z,60.90
2023-01-25T20:50:18.198Z,48.78
2023-01-25T20:52:42.596Z,46.83
2023-01-25T20:55:07.793Z,46.40
2023-01-25T20:57:32.543Z,46.88
2023-01-25T20:59:56.959Z,44.20
2023-01-25T21:02:21.403Z,38.53
2023-01-25T21:04:47.769Z,39.13
2023-01-25T21:07:12.269Z,35.72
2023-01-25T21:09:37.098Z,44.17
2023-01-25T21:12:01.543Z,41.83
2023-01-25T21:14:26.123Z,50.45
2023-01-25T21:16:50.576Z,36.35
2023-01-25T21:19:15.439Z,31.42
2023-01-25T21:21:41.753Z,40.03
2023-01-25T21:24:07.513Z,40.40
2023-01-25T21:26:34.100Z,46.72
2023-01-25T21:29:00.772Z,43.95
2023-01-25T21:31:27.097Z,53.20
2023-01-25T21:33:51.710Z,45.78
2023-01-25T21:36:17.381Z,53.90
2023-01-25T21:38:44.887Z,43.78
2023-01-25T21:41:13.128Z,41.25
2023-01-25T21:43:52.066Z,44.80
2023-01-25T21:46:25.495Z,55.90
2023-01-25T21:49:07.585Z,65.07
2023-01-25T21:51:39.615Z,45.95
2023-01-25T21:54:06.158Z,55.38
2023-01-25T21:56:30.995Z,53.58
2023-01-25T21:58:55.508Z,56.17
2023-01-25T22:01:20.243Z,45.88
2023-01-25T22:03:48.826Z,44.42
2023-01-25T22:06:13.156Z,54.65
2023-01-25T22:08:37.787Z,47.83
2023-01-25T22:11:08.455Z,46.88
2023-01-25T22:13:33.003Z,47.58
2023-01-25T22:16:01.194Z,44.47
2023-01-25T22:18:25.921Z,53.08
2023-01-25T22:20:56.943Z,57.47
2023-01-25T22:23:21.596Z,47.42
2023-01-25T22:25:47.504Z,50.30
2023-01-25T22:28:15.614Z,45.90
2023-01-25T22:30:40.104Z,47.50
2023-01-25T22:33:04.570Z,48.97
2023-01-25T22:35:29.048Z,55.05
2023-01-25T22:37:53.455Z,39.55
2023-01-25T22:40:18.125Z,48.70
2023-01-25T22:42:42.861Z,50.83
2023-01-25T22:45:10.588Z,40.65
2023-01-25T22:47:35.165Z,49.13
2023-01-25T22:49:59.682Z,37.80
2023-01-25T22:52:24.275Z,39.97
2023-01-25T22:54:50.348Z,41.88
2023-01-25T22:57:15.005Z,43.50
2023-01-25T22:59:39.500Z,39.47
2023-01-25T23:02:05.447Z,42.10
2023-01-25T23:04:30.721Z,40.85
2023-01-25T23:07:12.839Z,46.13
2023-01-25T23:09:37.563Z,42.58
2023-01-25T23:12:02.074Z,36.25
2023-01-25T23:14:44.128Z,43.78
2023-01-25T23:17:27.034Z,46.80
2023-01-25T23:19:51.809Z,40.13
2023-01-25T23:22:16.615Z,39.90
2023-01-25T23:24:41.596Z,45.40
2023-01-25T23:27:06.281Z,44.08
2023-01-25T23:29:30.795Z,48.20
2023-01-25T23:31:55.278Z,40.22
2023-01-25T23:34:21.266Z,46.95
2023-01-25T23:36:45.780Z,46.78
2023-01-25T23:39:13.611Z,46.72
2023-01-25T23:41:38.227Z,40.53
2023-01-25T23:44:02.740Z,41.17
2023-01-25T23:46:28.506Z,42.17
2023-01-25T23:48:53.135Z,40.25
2023-01-25T23:51:20.125Z,48.50
2023-01-25T23:53:44.992Z,40.00
2023-01-25T23:56:13.370Z,44.25
2023-01-25T23:58:39.295Z,44.70
